Latest Weather Observations for Hogan Island

IDV60801

Issued at 3:22 pm EDT Sunday 20 October 2019 (issued every 10 minutes, with the page automatically refreshed every 10 minutes)

About weather observations | Map of weather stations | Latest weather observations for VIC | Other Formats
Station Details ID: 200838 Name: HOGAN ISLAND Lat: -39.22 Lon: 146.98 Height: 116.0 m
Data from the previous 72 hours. | See also: Recent months at Hogan Island
Date/Time
EDT
Temp
°C
App
Temp
°C
Dew
Point
°C
Rel
Hum
%
Delta-T
°C
Wind Press
QNH
hPa
Press
MSL
hPa
Rain since
9am
mm
Dir  Spd
km/h
Gust
km/h
Spd
kts
Gust
kts
20/03:00pm 13.0 -0.7 12.5 97 0.3 W 76 89 41 48 1021.1 1021.1 0.0
20/02:30pm 13.2 1.4 13.0 99 0.1 W 67 78 36 42 1021.3 - 0.0
20/02:14pm 11.7 -1.5 11.4 98 0.2 W 72 91 39 49 1020.9 - 0.0
20/02:00pm 12.6 -1.1 12.4 99 0.1 W 76 89 41 48 1020.9 - 0.0
20/01:30pm 12.7 -0.1 11.6 93 0.6 W 70 85 38 46 1021.0 - 0.0
20/01:06pm 11.9 -0.9 10.8 93 0.6 W 69 87 37 47 1020.8 - 0.0
20/01:00pm 12.5 -0.8 11.1 91 0.7 W 72 87 39 47 1021.0 - 0.0
20/12:30pm 12.7 -0.4 11.8 94 0.5 W 72 85 39 46 1020.7 - 0.0
20/12:00pm 12.3 -0.5 10.9 91 0.7 W 69 82 37 44 1020.3 1020.3 0.0
20/11:30am 11.7 -1.6 9.9 89 0.9 W 70 80 38 43 1020.1 - 0.0
20/11:00am 12.2 -1.0 10.3 88 1.0 W 70 82 38 44 1019.7 - 0.0
20/10:30am 11.9 -0.3 11.6 98 0.2 W 67 80 36 43 1019.6 - 0.0
20/10:00am 11.3 -3.1 10.0 92 0.7 W 76 87 41 47 1019.4 - 0.0
20/09:30am 11.2 -1.2 10.9 98 0.2 W 67 78 36 42 1019.3 - 0.0
20/09:28am 11.3 -1.4 11.1 99 0.1 W 69 87 37 47 1019.3 - 0.0
20/09:00am 11.5 -1.2 11.2 98 0.2 W 69 82 37 44 1018.7 1018.8 1.2
20/08:30am 11.4 -0.9 11.2 99 0.1 W 67 78 36 42 1018.6 - 1.2
20/08:00am 11.0 -1.1 10.8 99 0.1 W 65 74 35 40 1018.3 - 1.2
20/07:30am 10.6 -0.8 10.6 100 0.0 W 61 76 33 41 1017.9 - 1.2
20/07:00am 10.3 0.2 10.3 100 0.0 W 54 67 29 36 1017.9 - 1.2
20/06:55am 10.3 -0.4 10.3 100 0.0 W 57 76 31 41 1017.9 - 1.2
20/06:30am 9.6 -1.7 9.6 100 0.0 W 59 69 32 37 1017.6 - 1.2
20/06:00am 10.4 -2.2 10.2 99 0.1 W 67 78 36 42 1017.2 1017.2 1.2
20/05:30am 10.5 -3.0 10.3 99 0.1 W 72 89 39 48 1016.8 - 1.2
20/05:00am 11.0 -2.8 10.7 98 0.2 W 74 85 40 46 1016.5 - 1.2
20/04:30am 10.7 -2.2 10.4 98 0.2 W 69 80 37 43 1016.1 - 1.2
20/04:00am 11.2 -2.3 10.4 95 0.4 W 72 85 39 46 1016.2 - 1.2
20/03:36am 11.0 -2.0 10.2 95 0.4 W 69 87 37 47 1016.1 - 1.2
20/03:30am 11.1 -1.5 10.3 95 0.4 W 67 74 36 40 1016.4 - 1.2
20/03:00am 10.8 -2.9 9.9 94 0.5 W 72 87 39 47 1016.3 1016.3 1.2
20/02:30am 10.7 -2.4 9.8 94 0.5 W 69 80 37 43 1016.2 - 1.2
20/02:00am 10.7 -3.5 9.3 91 0.7 W 74 87 40 47 1016.1 - 1.2
20/01:30am 11.0 -2.6 10.1 94 0.5 W 72 87 39 47 1016.3 - 1.2
20/01:00am 10.7 -2.8 10.5 99 0.1 W 72 91 39 49 1016.0 - 1.2
20/12:57am 10.6 -2.5 10.4 99 0.1 W 70 91 38 49 1015.9 - 1.2
20/12:30am 10.2 -2.9 10.0 99 0.1 W 69 83 37 45 1016.0 - 1.2
20/12:00am 10.9 -3.2 9.7 92 0.6 W 74 85 40 46 1015.8 - 1.2
 
Date/Time
EDT
Temp
°C
App
Temp
°C
Dew
Point
°C
Rel
Hum
%
Delta-T
°C
Wind Press
QNH
hPa
Press
MSL
hPa
Rain since
9am
mm
Dir  Spd
km/h
Gust
km/h
Spd
kts
Gust
kts
19/11:30pm 10.8 -2.1 10.6 99 0.1 W 69 83 37 45 1015.6 - 1.2
19/11:00pm 10.9 -2.2 10.7 99 0.1 W 70 85 38 46 1015.8 - 1.2
19/10:30pm 10.9 -2.5 10.7 99 0.1 W 72 83 39 45 1015.6 - 1.2
19/10:00pm 10.5 -4.6 10.3 99 0.1 W 80 91 43 49 1015.2 - 1.2
19/09:30pm 10.6 -3.2 10.6 100 0.0 W 74 87 40 47 1015.2 - 1.2
19/09:00pm 9.7 -3.6 9.7 100 0.0 W 70 83 38 45 1014.8 1014.8 1.2
19/08:46pm 9.3 -6.4 9.2 99 0.0 W 82 91 44 49 1014.5 - 1.2
19/08:31pm 11.1 -0.2 10.9 99 0.1 W 61 80 33 43 1014.5 - 0.8
19/08:30pm 10.9 -0.1 10.7 99 0.1 W 59 72 32 39 1014.5 - 0.8
19/08:00pm 9.5 -4.0 9.2 98 0.1 W 70 89 38 48 1014.3 - 0.8
19/07:30pm 9.9 -4.6 9.6 98 0.2 W 76 95 41 51 1013.8 - 0.8
19/07:18pm 10.7 -3.1 9.5 92 0.6 W 72 96 39 52 1013.3 - 0.8
19/07:00pm 10.8 -2.5 9.7 93 0.6 W 70 82 38 44 1013.4 - 0.8
19/06:34pm 10.8 -3.8 9.2 90 0.8 W 76 95 41 51 1012.8 - 0.8
19/06:30pm 11.0 -4.3 9.4 90 0.8 W 80 95 43 51 1012.6 - 0.8
19/06:00pm 11.4 -3.0 10.1 92 0.7 W 76 87 41 47 1012.4 1012.4 0.8
19/05:30pm 11.5 -3.7 9.9 90 0.8 W 80 93 43 50 1011.7 - 0.8
19/05:00pm 11.8 -2.4 10.5 92 0.7 W 76 89 41 48 1011.8 - 0.8
19/04:30pm 11.0 -2.8 10.7 98 0.2 W 74 89 40 48 1011.5 - 0.8
19/04:00pm 10.4 -3.9 10.2 99 0.1 W 76 87 41 47 1011.6 - 0.8
19/03:30pm 9.9 -6.6 8.3 90 0.8 W 85 104 46 56 1010.6 - 0.6
19/03:00pm 11.4 -2.9 8.8 84 1.3 W 74 85 40 46 1011.2 1011.2 0.6
19/02:30pm 11.7 -2.7 10.1 90 0.8 W 76 91 41 49 1011.2 - 0.6
19/02:00pm 10.7 -3.3 9.9 95 0.4 W 74 91 40 49 1011.4 - 0.6
19/01:37pm 10.5 -2.2 8.3 86 1.1 WNW 65 83 35 45 1011.2 - 0.4
19/01:30pm 10.7 -1.2 8.5 86 1.1 WNW 61 74 33 40 1011.6 - 0.4
19/01:00pm 11.5 -0.4 8.5 82 1.5 WNW 61 70 33 38 1011.5 - 0.4
19/12:44pm 11.8 -1.3 9.7 87 1.1 WNW 69 87 37 47 1011.2 - 0.4
19/12:30pm 11.8 -2.0 9.5 86 1.2 W 72 85 39 46 1011.1 - 0.4
19/12:22pm 11.4 -0.8 8.8 84 1.3 W 63 83 34 45 1011.1 - 0.4
19/12:00pm 10.7 -0.4 10.2 97 0.3 W 59 69 32 37 1011.3 1011.3 0.4
19/11:34am 9.3 -3.9 8.1 92 0.6 WNW 67 93 36 50 1010.6 - 0.4
19/11:30am 10.0 -1.9 8.6 91 0.7 WNW 61 74 33 40 1011.1 - 0.4
19/11:00am 9.1 -3.1 8.8 98 0.1 WNW 63 74 34 40 1011.1 - 0.4
19/10:30am 9.6 -0.7 9.6 100 0.0 W 54 63 29 34 1011.2 - 0.4
19/10:00am 7.7 -4.0 7.7 100 0.0 W 59 78 32 42 1011.1 - 0.4
19/09:54am 7.9 -5.9 7.9 100 0.0 W 70 91 38 49 1011.1 - 0.4
19/09:42am 9.1 -6.3 9.0 99 0.0 W 80 95 43 51 1009.6 - 0.0
19/09:41am 9.1 -1.8 9.0 99 0.0 WNW 56 93 30 50 1009.9 - 0.0
19/09:40am 9.5 -0.9 9.4 99 0.0 WNW 54 74 29 40 1010.4 - 0.0
19/09:30am 9.6 0.0 9.5 99 0.1 WNW 50 59 27 32 1010.5 - 0.0
19/09:00am 9.3 0.8 9.3 100 0.0 WNW 44 54 24 29 1010.4 1010.5 3.2
19/08:30am 8.1 -2.2 8.1 100 0.0 WNW 52 69 28 37 1010.4 - 3.2
19/08:19am 8.5 0.0 8.5 100 0.0 WNW 43 69 23 37 1010.4 - 2.6
19/08:00am 7.8 -1.4 7.8 100 0.0 W 46 61 25 33 1010.3 - 2.4
19/07:53am 8.4 -0.1 8.4 100 0.0 WNW 43 61 23 33 1010.2 - 2.0
19/07:30am 8.1 -1.5 8.0 99 0.0 WNW 48 63 26 34 1010.0 - 2.0
19/07:00am 8.4 -0.8 8.1 98 0.1 WNW 46 59 25 32 1009.6 - 1.8
19/06:45am 8.7 -2.9 6.8 88 0.9 WNW 57 70 31 38 1009.3 - 1.8
19/06:30am 8.6 -2.9 6.1 84 1.2 W 56 85 30 46 1008.8 - 1.8
19/06:29am 8.7 -2.4 6.3 85 1.1 W 54 74 29 40 1008.9 - 1.8
19/06:00am 9.2 -1.1 8.0 92 0.6 W 52 61 28 33 1008.9 1008.9 1.8
19/05:30am 9.2 0.7 9.1 99 0.0 W 44 54 24 29 1008.7 - 1.8
19/05:00am 8.8 -0.2 8.7 99 0.0 W 46 59 25 32 1009.0 - 1.8
19/04:30am 8.5 -3.5 8.4 99 0.0 W 61 72 33 39 1009.0 - 1.8
19/04:16am 8.3 -2.4 8.2 99 0.0 W 54 74 29 40 1008.9 - 1.2
19/04:00am 8.8 -2.4 8.2 96 0.3 W 57 72 31 39 1008.8 - 0.8
19/03:30am 9.8 -1.1 8.7 93 0.5 W 56 67 30 36 1008.7 - 0.8
19/03:00am 9.7 -1.8 8.6 93 0.5 W 59 72 32 39 1008.9 1008.9 0.8
19/02:30am 9.7 -1.4 8.6 93 0.5 W 57 70 31 38 1009.1 - 0.8
19/02:00am 9.9 -0.4 9.8 99 0.1 W 54 65 29 35 1009.3 - 0.8
19/01:30am 10.4 -0.1 10.2 99 0.1 W 56 65 30 35 1009.5 - 0.8
19/01:00am 10.2 -1.0 10.0 99 0.1 W 59 69 32 37 1009.7 - 0.8
19/12:30am 9.9 0.4 9.9 100 0.0 W 50 61 27 33 1009.9 - 0.8
19/12:00am 10.3 0.2 10.3 100 0.0 W 54 67 29 36 1009.7 1009.7 0.6
 
Date/Time
EDT
Temp
°C
App
Temp
°C
Dew
Point
°C
Rel
Hum
%
Delta-T
°C
Wind Press
QNH
hPa
Press
MSL
hPa
Rain since
9am
mm
Dir  Spd
km/h
Gust
km/h
Spd
kts
Gust
kts
18/11:30pm 10.3 -0.8 10.3 100 0.0 W 59 72 32 39 1009.6 - 0.6
18/11:00pm 9.8 - 9.9 - - W 56 70 30 38 1009.9 - 0.4
18/10:30pm 9.9 -2.0 9.9 100 0.0 W 63 70 34 38 1009.3 - 0.2
18/10:00pm 10.2 -2.4 10.2 100 0.0 W 67 80 36 43 1009.2 - 0.0
18/09:30pm 10.7 -1.0 10.7 100 0.0 W 63 76 34 41 1009.3 - 0.0
18/09:00pm 11.2 -1.1 11.2 100 0.0 W 67 80 36 43 1009.1 1009.1 0.0
18/08:30pm 11.1 -2.6 11.1 100 0.0 W 74 87 40 47 1008.3 - 0.0
18/08:00pm 11.2 -2.5 11.2 100 0.0 W 74 85 40 46 1007.8 - 0.0
18/07:30pm 10.7 -4.3 10.7 100 0.0 W 80 91 43 49 1007.3 - 0.0
18/07:11pm 10.6 -5.2 9.8 95 0.4 W 83 102 45 55 1006.9 - 0.0
18/07:05pm 11.8 -4.7 10.0 89 0.9 W 87 96 47 52 1006.7 - 0.0
18/07:01pm 14.0 2.2 10.4 79 1.9 WNW 63 89 34 48 1007.0 - 0.0
18/07:00pm 15.1 3.9 11.3 78 2.0 WNW 61 74 33 40 1006.4 - 0.0
18/06:30pm 15.5 3.9 11.1 75 2.4 WNW 63 70 34 38 1005.8 - 0.0
18/06:00pm 15.1 4.8 11.1 77 2.1 WNW 56 67 30 36 1006.2 1006.2 0.0
18/05:30pm 14.8 5.6 11.0 78 2.0 WNW 50 59 27 32 1006.7 - 0.0
18/05:00pm 15.7 4.9 11.1 74 2.5 WNW 59 72 32 39 1006.9 - 0.0
18/04:30pm 15.5 3.8 10.9 74 2.5 WNW 63 76 34 41 1006.9 - 0.0
18/04:00pm 15.9 4.1 10.4 70 2.9 WNW 63 76 34 41 1007.1 - 0.0
18/03:35pm 15.8 6.3 11.0 73 2.6 WNW 52 72 28 39 1007.4 - 0.0
18/03:30pm 15.8 7.4 11.2 74 2.5 WNW 46 59 25 32 1007.8 - 0.0
18/03:00pm 14.2 6.8 10.0 76 2.2 WNW 39 46 21 25 1008.8 1008.8 0.0
18/02:30pm 14.3 5.4 9.1 71 2.7 WNW 46 54 25 29 1009.1 - 0.0
18/02:00pm 13.9 4.2 8.9 72 2.5 WNW 50 63 27 34 1009.7 - 0.0
18/01:30pm 13.7 -0.3 8.7 72 2.5 WNW 72 80 39 43 1009.0 - 0.0
18/01:00pm 13.6 1.4 8.9 73 2.4 WNW 63 76 34 41 1009.5 - 0.0
18/12:30pm 13.3 2.4 8.8 74 2.3 WNW 56 65 30 35 1010.4 - 0.0
18/12:00pm 13.4 2.5 8.7 73 2.4 WNW 56 65 30 35 1011.1 1011.1 0.0
18/11:30am 13.0 2.8 8.5 74 2.3 WNW 52 59 28 32 1011.5 - 0.0
18/11:00am 12.4 2.8 8.1 75 2.1 WNW 48 57 26 31 1011.8 - 0.0
18/10:30am 11.9 1.6 8.2 78 1.8 WNW 52 59 28 32 1012.0 - 0.0
18/10:00am 11.4 0.3 7.9 79 1.7 WNW 56 67 30 36 1011.9 - 0.0
18/09:30am 11.2 -0.2 7.7 79 1.7 WNW 57 65 31 35 1012.1 - 0.0
18/09:00am 10.7 0.7 7.8 82 1.4 WNW 50 57 27 31 1012.5 1012.5 4.6
18/08:30am 10.7 -0.7 6.8 77 1.9 WNW 56 65 30 35 1012.6 - 4.6
18/08:00am 10.7 1.1 8.1 84 1.3 WNW 48 59 26 32 1012.7 - 4.6
18/07:30am 10.6 1.6 9.0 90 0.8 WNW 46 57 25 31 1012.7 - 4.6
18/07:00am 10.8 0.9 8.4 85 1.2 WNW 50 63 27 34 1012.5 - 4.6
18/06:30am 10.8 0.5 8.0 83 1.4 WNW 52 61 28 33 1012.3 - 4.6
18/06:00am 11.0 0.1 8.8 86 1.1 WNW 56 69 30 37 1012.0 1012.0 4.6
18/05:30am 10.7 -0.4 7.9 83 1.4 W 56 69 30 37 1011.9 - 4.6
18/05:00am 10.9 -0.6 8.8 87 1.0 W 59 69 32 37 1011.7 - 4.6
18/04:30am 10.8 -1.3 10.6 99 0.1 W 65 72 35 39 1011.3 - 4.6
18/04:00am 10.6 0.0 10.6 100 0.0 W 57 72 31 39 1011.5 - 4.6
18/03:30am 10.3 0.9 10.3 100 0.0 W 50 59 27 32 1012.0 - 4.6
18/03:00am 11.0 1.5 11.0 100 0.0 W 52 61 28 33 1011.9 1011.9 4.6
18/02:30am 10.9 1.3 10.9 100 0.0 W 52 61 28 33 1011.9 - 4.6
18/02:00am 11.0 1.1 11.0 100 0.0 W 54 61 29 33 1012.2 - 4.6
18/01:30am 10.9 0.9 10.9 100 0.0 W 54 65 29 35 1012.3 - 4.6
18/01:00am 10.8 -0.1 10.8 100 0.0 W 59 69 32 37 1012.5 - 4.6
18/12:30am 11.0 -0.3 11.0 100 0.0 W 61 69 33 37 1012.4 - 4.6
18/12:00am 10.9 0.0 10.9 100 0.0 W 59 70 32 38 1012.2 1012.2 4.6
 
Date/Time
EDT
Temp
°C
App
Temp
°C
Dew
Point
°C
Rel
Hum
%
Delta-T
°C
Wind Press
QNH
hPa
Press
MSL
hPa
Rain since
9am
mm
Dir  Spd
km/h
Gust
km/h
Spd
kts
Gust
kts
17/11:30pm 11.0 -1.4 11.0 100 0.0 W 67 76 36 41 1012.3 - 4.6
17/11:00pm 11.0 -1.4 11.0 100 0.0 W 67 76 36 41 1012.0 - 4.6
17/10:30pm 10.9 -0.8 10.9 100 0.0 W 63 72 34 39 1011.7 - 4.6
17/10:00pm 11.0 -0.6 11.0 100 0.0 W 63 72 34 39 1011.4 - 4.6
17/09:30pm 10.8 0.4 10.8 100 0.0 W 56 63 30 34 1011.2 - 4.6
17/08:30pm 10.5 0.4 10.5 100 0.0 W 54 61 29 33 1009.8 - 4.6
17/08:00pm 10.5 0.4 10.3 99 0.1 W 54 65 29 35 1009.2 - 4.6
17/07:30pm 10.6 0.1 10.4 99 0.1 WSW 56 63 30 34 1008.6 - 4.6
17/07:00pm 10.7 0.3 10.5 99 0.1 WSW 56 65 30 35 1008.0 - 4.6
17/06:30pm 11.4 1.1 11.1 98 0.2 WSW 56 63 30 34 1007.6 - 4.6
17/06:00pm 11.5 2.8 11.3 99 0.1 W 48 56 26 30 1007.2 1007.2 4.6
17/05:30pm 11.5 2.5 11.5 100 0.0 W 50 59 27 32 1006.7 - 4.6
17/05:00pm 11.0 1.8 11.0 100 0.0 W 50 57 27 31 1006.3 - 4.6
17/04:30pm 11.4 0.2 11.2 99 0.1 W 61 69 33 37 1005.9 - 4.6
17/04:00pm 11.2 -0.4 11.0 99 0.1 W 63 72 34 39 1005.3 - 4.6
17/03:30pm 11.4 -0.2 11.2 99 0.1 W 63 74 34 40 1005.3 - 4.6

Other formats

Comma delimited format used in spreadsheet applications
http://www.bom.gov.au/fwo/IDV60801/IDV60801.94949.axf

JavaScript Object Notation format (JSON) in row-major order
http://www.bom.gov.au/fwo/IDV60801/IDV60801.94949.json

Data quality

Most of these data are generated automatically and are frequently updated. Quality checks on data are not normally performed. It is possible for incorrect values to appear. Refer to information at About Latest Weather Observations and please check the disclaimer before using these data.